createdAt,value
2023-04-30T00:03:30.023Z,92.20
2023-04-30T00:08:30.409Z,92.20
2023-04-30T00:13:30.269Z,92.30
2023-04-30T00:18:28.744Z,92.30
2023-04-30T00:23:27.232Z,92.50
2023-04-30T00:28:25.723Z,92.50
2023-04-30T00:33:25.453Z,92.60
2023-04-30T00:38:23.951Z,92.60
2023-04-30T00:43:22.066Z,92.60
2023-04-30T00:48:21.055Z,92.60
2023-04-30T00:53:21.528Z,92.60
2023-04-30T00:58:20.103Z,92.50
2023-04-30T01:03:18.952Z,92.70
2023-04-30T01:08:17.345Z,92.60
2023-04-30T01:13:30.216Z,92.50
2023-04-30T01:18:35.062Z,92.30
2023-04-30T01:23:49.334Z,92.60
2023-04-30T01:28:52.626Z,92.70
2023-04-30T01:33:51.305Z,92.50
2023-04-30T01:39:05.494Z,92.50
2023-04-30T01:44:21.275Z,92.50
2023-04-30T01:49:31.904Z,92.40
2023-04-30T01:54:36.162Z,92.20
2023-04-30T01:59:37.453Z,92.20
2023-04-30T02:04:36.335Z,92.20
2023-04-30T02:09:35.736Z,91.90
2023-04-30T02:14:36.000Z,92.00
2023-04-30T02:19:34.758Z,91.90
2023-04-30T02:24:33.240Z,91.90
2023-04-30T02:29:31.818Z,92.00
2023-04-30T02:34:31.701Z,91.60
2023-04-30T02:39:30.189Z,91.80
2023-04-30T02:44:28.619Z,91.80
2023-04-30T02:49:27.449Z,91.90
2023-04-30T02:54:27.336Z,92.30
2023-04-30T02:59:25.779Z,92.40
2023-04-30T03:04:24.284Z,92.30
2023-04-30T03:09:22.955Z,92.40
2023-04-30T03:14:23.143Z,92.40
2023-04-30T03:19:25.570Z,92.30
2023-04-30T03:24:25.482Z,92.30
2023-04-30T03:29:25.611Z,92.30
2023-04-30T03:34:24.290Z,92.20
2023-04-30T03:39:22.753Z,92.50
2023-04-30T03:44:21.366Z,92.30
2023-04-30T03:49:21.211Z,92.70
2023-04-30T03:54:19.677Z,92.60
2023-04-30T03:59:18.840Z,92.60
2023-04-30T04:04:17.645Z,92.50
2023-04-30T04:09:17.187Z,92.70
2023-04-30T04:14:16.854Z,92.70
2023-04-30T04:19:15.963Z,92.70
2023-04-30T04:24:19.380Z,92.80
2023-04-30T04:29:17.846Z,92.80
2023-04-30T04:34:16.423Z,92.90
2023-04-30T04:39:15.020Z,92.80
2023-04-30T04:44:14.590Z,92.90
2023-04-30T04:49:14.066Z,93.10
2023-04-30T04:54:12.532Z,93.20
2023-04-30T04:59:11.540Z,93.50
2023-04-30T05:04:11.471Z,93.60
2023-04-30T05:09:10.267Z,93.70
2023-04-30T05:14:08.887Z,94.00
2023-04-30T05:19:07.472Z,94.00
2023-04-30T05:24:07.785Z,94.10
2023-04-30T05:29:06.231Z,94.20
2023-04-30T05:34:04.391Z,94.20
2023-04-30T05:39:02.839Z,94.50
2023-04-30T05:44:05.317Z,94.30
2023-04-30T05:49:04.004Z,94.40
2023-04-30T05:54:02.493Z,94.40
2023-04-30T05:59:02.320Z,94.50
2023-04-30T06:04:01.644Z,94.20
2023-04-30T06:08:59.803Z,94.60
2023-04-30T06:13:58.779Z,94.70
2023-04-30T06:18:58.646Z,94.50
2023-04-30T06:23:56.778Z,94.60
2023-04-30T06:28:55.255Z,94.80
2023-04-30T06:33:53.426Z,94.30
2023-04-30T06:38:53.270Z,94.60
2023-04-30T06:43:51.747Z,94.90
2023-04-30T06:48:50.204Z,94.40
2023-04-30T06:53:48.675Z,94.10
2023-04-30T06:58:50.651Z,94.30
2023-04-30T07:03:49.350Z,94.90
2023-04-30T07:08:48.853Z,94.10
2023-04-30T07:13:48.736Z,94.20
2023-04-30T07:18:49.167Z,94.20
2023-04-30T07:23:49.005Z,92.10
2023-04-30T07:28:50.248Z,92.70
2023-04-30T07:33:50.901Z,93.00
2023-04-30T07:38:49.425Z,92.90
2023-04-30T07:43:49.247Z,92.30
2023-04-30T07:48:47.683Z,91.40
2023-04-30T07:53:46.290Z,91.90
2023-04-30T07:58:44.814Z,91.40
2023-04-30T08:03:44.891Z,91.70
2023-04-30T08:08:43.718Z,91.90
2023-04-30T08:13:42.238Z,89.60
2023-04-30T08:18:44.387Z,91.90
2023-04-30T08:23:44.431Z,92.10
2023-04-30T08:28:42.906Z,91.20
2023-04-30T08:33:41.594Z,90.80
2023-04-30T08:38:40.033Z,91.10
2023-04-30T08:43:40.092Z,91.20
2023-04-30T08:48:38.949Z,86.80
2023-04-30T08:53:39.346Z,89.50
2023-04-30T08:58:39.914Z,87.40
2023-04-30T09:03:38.475Z,84.40
2023-04-30T09:08:44.661Z,89.70
2023-04-30T09:13:44.540Z,83.50
2023-04-30T09:18:43.661Z,88.80
2023-04-30T09:23:57.316Z,87.90
2023-04-30T09:29:01.133Z,87.70
2023-04-30T09:33:59.299Z,87.40
2023-04-30T09:38:57.723Z,84.00
2023-04-30T09:43:56.296Z,87.30
2023-04-30T09:49:03.530Z,87.50
2023-04-30T09:54:05.201Z,87.60
2023-04-30T09:59:06.798Z,86.60
2023-04-30T10:04:07.488Z,83.10
2023-04-30T10:09:08.401Z,83.10
2023-04-30T10:14:12.236Z,82.20
2023-04-30T10:19:16.912Z,79.20
2023-04-30T10:24:19.586Z,76.50
2023-04-30T10:29:18.739Z,75.00
2023-04-30T10:34:27.435Z,78.40
2023-04-30T10:39:29.227Z,80.80
2023-04-30T10:44:27.830Z,78.80
2023-04-30T10:49:28.349Z,78.60
2023-04-30T10:54:29.037Z,78.20
2023-04-30T10:59:30.128Z,78.80
2023-04-30T11:04:30.267Z,81.70
2023-04-30T11:09:38.572Z,82.20
2023-04-30T11:14:41.239Z,77.90
2023-04-30T11:19:49.606Z,78.70
2023-04-30T11:25:13.346Z,78.50
2023-04-30T11:30:15.423Z,79.10
2023-04-30T11:35:20.019Z,77.60
2023-04-30T11:40:18.495Z,80.40
2023-04-30T11:45:21.163Z,78.80
2023-04-30T11:50:27.457Z,78.60
2023-04-30T11:55:28.172Z,74.40
2023-04-30T12:00:29.201Z,68.40
2023-04-30T12:05:29.342Z,70.40
2023-04-30T12:10:27.902Z,68.40
2023-04-30T12:15:28.024Z,67.50
2023-04-30T12:20:29.437Z,65.40
2023-04-30T12:25:30.704Z,66.10
2023-04-30T12:30:29.216Z,70.20
2023-04-30T12:35:31.307Z,70.80
2023-04-30T12:40:29.996Z,64.10
2023-04-30T12:45:48.787Z,72.80
2023-04-30T12:50:54.800Z,71.80
2023-04-30T12:56:09.728Z,70.20
2023-04-30T13:01:13.033Z,67.40
2023-04-30T13:06:12.948Z,65.30
2023-04-30T13:11:11.716Z,59.60
2023-04-30T13:16:10.098Z,68.50
2023-04-30T13:21:08.620Z,67.60
2023-04-30T13:26:08.495Z,59.70
2023-04-30T13:31:06.759Z,62.70
2023-04-30T13:36:05.401Z,58.20
2023-04-30T13:41:03.957Z,59.30
2023-04-30T13:46:03.443Z,56.70
2023-04-30T13:51:02.055Z,67.20
2023-04-30T13:56:00.653Z,58.80
2023-04-30T14:00:59.736Z,68.10
2023-04-30T14:05:59.697Z,67.90
2023-04-30T14:10:58.235Z,59.90
2023-04-30T14:15:57.050Z,62.40
2023-04-30T14:20:55.510Z,58.10
2023-04-30T14:25:55.657Z,60.40
2023-04-30T14:30:54.109Z,62.60
2023-04-30T14:35:52.237Z,55.90
2023-04-30T14:40:50.809Z,61.30
2023-04-30T14:45:50.734Z,54.90
2023-04-30T14:50:49.247Z,56.40
2023-04-30T14:55:47.728Z,57.10
2023-04-30T15:00:46.448Z,55.10
2023-04-30T15:05:46.873Z,57.60
2023-04-30T15:10:45.350Z,56.90
2023-04-30T15:15:43.579Z,58.50
2023-04-30T15:20:42.081Z,61.10
2023-04-30T15:25:43.394Z,61.70
2023-04-30T15:30:41.858Z,63.90
2023-04-30T15:35:41.370Z,59.80
2023-04-30T15:40:41.200Z,61.30
2023-04-30T15:45:40.259Z,56.50
2023-04-30T15:50:38.406Z,58.00
2023-04-30T15:55:37.541Z,57.20
2023-04-30T16:00:37.354Z,60.00
2023-04-30T16:05:38.816Z,61.30
2023-04-30T16:10:37.487Z,61.20
2023-04-30T16:22:25.644Z,67.80
2023-04-30T16:34:19.383Z,63.60
2023-04-30T16:39:19.373Z,67.50
2023-04-30T16:44:17.842Z,59.00
2023-04-30T16:49:16.663Z,64.60
2023-04-30T16:54:14.861Z,61.00
2023-04-30T16:59:14.820Z,58.60
2023-04-30T17:04:14.552Z,60.00
2023-04-30T17:16:02.895Z,64.70
2023-04-30T17:21:01.469Z,63.70
2023-04-30T17:26:00.710Z,63.00
2023-04-30T17:30:59.290Z,63.30
2023-04-30T17:35:59.914Z,64.00
2023-04-30T17:40:59.000Z,64.10
2023-04-30T17:45:58.377Z,63.20
2023-04-30T17:50:58.399Z,64.00
2023-04-30T17:55:56.917Z,63.90
2023-04-30T18:00:56.832Z,63.90
2023-04-30T18:05:55.444Z,63.50
2023-04-30T18:10:57.322Z,64.10
2023-04-30T18:15:55.553Z,65.40
2023-04-30T18:20:54.106Z,64.70
2023-04-30T18:25:52.574Z,66.30
2023-04-30T18:30:52.364Z,66.70
2023-04-30T18:35:51.645Z,67.00
2023-04-30T18:40:54.290Z,67.00
2023-04-30T18:45:54.192Z,68.70
2023-04-30T18:50:52.966Z,68.30
2023-04-30T18:55:52.107Z,68.80
2023-04-30T19:00:50.653Z,69.10
2023-04-30T19:05:55.389Z,69.70
2023-04-30T19:10:54.922Z,70.20
2023-04-30T19:15:54.044Z,71.60
2023-04-30T19:20:59.814Z,71.50
2023-04-30T19:25:58.566Z,72.20
2023-04-30T19:30:57.661Z,72.50
2023-04-30T19:35:59.029Z,72.90
2023-04-30T19:40:57.599Z,74.20
2023-04-30T19:45:57.588Z,74.10
2023-04-30T19:50:56.163Z,75.40
2023-04-30T19:55:56.524Z,75.40
2023-04-30T20:00:56.200Z,74.80
2023-04-30T20:05:54.653Z,75.90
2023-04-30T20:10:53.147Z,76.40
2023-04-30T20:15:53.163Z,76.60
2023-04-30T20:20:52.875Z,77.20
2023-04-30T20:25:51.417Z,76.80
2023-04-30T20:30:49.887Z,77.10
2023-04-30T20:35:49.617Z,77.10
2023-04-30T20:40:48.101Z,78.00
2023-04-30T20:45:46.703Z,77.90
2023-04-30T20:50:45.586Z,77.80
2023-04-30T20:55:46.325Z,79.00
2023-04-30T21:00:44.831Z,78.70
2023-04-30T21:05:42.987Z,78.80
2023-04-30T21:10:42.617Z,79.10
2023-04-30T21:15:43.456Z,79.30
2023-04-30T21:20:42.302Z,79.60
2023-04-30T21:25:41.037Z,79.60
2023-04-30T21:30:40.390Z,79.90
2023-04-30T21:35:41.022Z,80.00
2023-04-30T21:40:39.516Z,79.90
2023-04-30T21:45:37.936Z,80.90
2023-04-30T21:50:36.684Z,80.40
2023-04-30T21:55:36.177Z,80.70
2023-04-30T22:00:34.890Z,80.50
2023-04-30T22:05:33.339Z,80.80
2023-04-30T22:10:32.013Z,80.60
2023-04-30T22:15:41.148Z,81.20
2023-04-30T22:20:46.232Z,81.30
2023-04-30T22:25:44.727Z,81.30
2023-04-30T22:30:45.507Z,81.30
2023-04-30T22:35:44.146Z,81.60
2023-04-30T22:40:42.322Z,81.60
2023-04-30T22:45:41.437Z,82.10
2023-04-30T22:50:41.391Z,82.50
2023-04-30T22:55:39.900Z,81.90
2023-04-30T23:00:38.474Z,82.20
2023-04-30T23:05:37.594Z,82.40
2023-04-30T23:10:37.416Z,82.60
2023-04-30T23:15:35.889Z,82.50
2023-04-30T23:20:34.361Z,82.10
2023-04-30T23:25:34.014Z,82.50
2023-04-30T23:30:34.053Z,82.00
2023-04-30T23:35:32.603Z,82.10
2023-04-30T23:40:31.288Z,82.00
2023-04-30T23:45:29.760Z,82.80
2023-04-30T23:50:29.564Z,82.70
2023-04-30T23:55:28.096Z,82.70
